sensor_id;sensor_type;location;lat;lon;timestamp;pressure;altitude;pressure_sealevel;temperature;humidity
74327;BME280;62745;51.060;13.786;2023-04-22T00:02:12;100082.66;;;8.41;77.67
74327;BME280;62745;51.060;13.786;2023-04-22T00:04:39;100082.34;;;8.36;79.13
74327;BME280;62745;51.060;13.786;2023-04-22T00:07:05;100079.22;;;8.32;79.09
74327;BME280;62745;51.060;13.786;2023-04-22T00:09:31;100085.31;;;8.41;79.58
74327;BME280;62745;51.060;13.786;2023-04-22T00:11:56;100082.69;;;8.33;79.45
74327;BME280;62745;51.060;13.786;2023-04-22T00:14:23;100076.78;;;8.23;79.95
74327;BME280;62745;51.060;13.786;2023-04-22T00:16:48;100088.94;;;8.25;79.64
74327;BME280;62745;51.060;13.786;2023-04-22T00:19:13;100091.28;;;8.20;79.18
74327;BME280;62745;51.060;13.786;2023-04-22T00:21:39;100078.25;;;8.10;79.59
74327;BME280;62745;51.060;13.786;2023-04-22T00:24:04;100066.41;;;7.98;80.27
74327;BME280;62745;51.060;13.786;2023-04-22T00:26:29;100073.72;;;7.96;80.46
74327;BME280;62745;51.060;13.786;2023-04-22T00:28:56;100071.81;;;7.90;80.67
74327;BME280;62745;51.060;13.786;2023-04-22T00:31:21;100070.47;;;7.86;80.88
74327;BME280;62745;51.060;13.786;2023-04-22T00:33:46;100077.63;;;7.85;81.68
74327;BME280;62745;51.060;13.786;2023-04-22T00:36:11;100070.72;;;7.99;81.85
74327;BME280;62745;51.060;13.786;2023-04-22T00:38:37;100073.31;;;7.84;81.46
74327;BME280;62745;51.060;13.786;2023-04-22T00:41:03;100067.91;;;7.78;82.29
74327;BME280;62745;51.060;13.786;2023-04-22T00:43:28;100072.13;;;7.87;82.35
74327;BME280;62745;51.060;13.786;2023-04-22T00:45:55;100068.38;;;7.81;82.53
74327;BME280;62745;51.060;13.786;2023-04-22T00:48:21;100069.91;;;7.76;82.93
74327;BME280;62745;51.060;13.786;2023-04-22T00:50:48;100068.13;;;7.68;82.61
74327;BME280;62745;51.060;13.786;2023-04-22T00:53:13;100063.00;;;7.67;83.76
74327;BME280;62745;51.060;13.786;2023-04-22T00:55:38;100062.75;;;7.53;84.94
74327;BME280;62745;51.060;13.786;2023-04-22T00:58:04;100061.34;;;7.43;85.33
74327;BME280;62745;51.060;13.786;2023-04-22T01:00:29;100057.88;;;7.42;85.50
74327;BME280;62745;51.060;13.786;2023-04-22T01:02:55;100069.50;;;7.41;86.04
74327;BME280;62745;51.060;13.786;2023-04-22T01:05:22;100069.81;;;7.38;86.19
74327;BME280;62745;51.060;13.786;2023-04-22T01:07:47;100062.66;;;7.47;86.80
74327;BME280;62745;51.060;13.786;2023-04-22T01:10:13;100064.94;;;7.50;86.88
74327;BME280;62745;51.060;13.786;2023-04-22T01:12:38;100062.28;;;7.50;86.12
74327;BME280;62745;51.060;13.786;2023-04-22T01:15:04;100061.28;;;7.51;85.99
74327;BME280;62745;51.060;13.786;2023-04-22T01:17:30;100063.28;;;7.49;85.42
74327;BME280;62745;51.060;13.786;2023-04-22T01:19:57;100061.56;;;7.33;86.33
74327;BME280;62745;51.060;13.786;2023-04-22T01:22:24;100061.53;;;7.41;86.55
74327;BME280;62745;51.060;13.786;2023-04-22T01:24:50;100043.22;;;7.23;86.48
74327;BME280;62745;51.060;13.786;2023-04-22T01:27:15;100060.75;;;7.33;86.14
74327;BME280;62745;51.060;13.786;2023-04-22T01:29:41;100058.78;;;7.27;87.15
74327;BME280;62745;51.060;13.786;2023-04-22T01:32:06;100056.75;;;7.06;87.99
74327;BME280;62745;51.060;13.786;2023-04-22T01:34:32;100054.09;;;7.06;88.15
74327;BME280;62745;51.060;13.786;2023-04-22T01:36:57;100050.47;;;6.99;87.97
74327;BME280;62745;51.060;13.786;2023-04-22T01:39:22;100049.84;;;7.19;88.15
74327;BME280;62745;51.060;13.786;2023-04-22T01:41:48;100046.78;;;7.08;88.45
74327;BME280;62745;51.060;13.786;2023-04-22T01:44:13;100038.72;;;7.24;87.71
74327;BME280;62745;51.060;13.786;2023-04-22T01:46:39;100044.53;;;7.19;87.74
74327;BME280;62745;51.060;13.786;2023-04-22T01:49:05;100039.50;;;7.02;87.67
74327;BME280;62745;51.060;13.786;2023-04-22T01:51:30;100039.13;;;7.05;88.23
74327;BME280;62745;51.060;13.786;2023-04-22T01:53:56;100035.25;;;6.92;88.03
74327;BME280;62745;51.060;13.786;2023-04-22T01:56:21;100036.28;;;7.14;87.65
74327;BME280;62745;51.060;13.786;2023-04-22T01:58:46;100033.59;;;6.91;87.92
74327;BME280;62745;51.060;13.786;2023-04-22T02:01:12;100041.59;;;6.83;88.98
74327;BME280;62745;51.060;13.786;2023-04-22T02:03:37;100035.78;;;6.80;88.63
74327;BME280;62745;51.060;13.786;2023-04-22T02:06:03;100038.81;;;6.77;89.34
74327;BME280;62745;51.060;13.786;2023-04-22T02:08:28;100032.50;;;6.70;89.48
74327;BME280;62745;51.060;13.786;2023-04-22T02:10:54;100033.72;;;6.59;89.48
74327;BME280;62745;51.060;13.786;2023-04-22T02:13:19;100040.81;;;6.67;89.32
74327;BME280;62745;51.060;13.786;2023-04-22T02:15:44;100031.44;;;6.56;89.59
74327;BME280;62745;51.060;13.786;2023-04-22T02:18:09;100031.31;;;6.41;90.19
74327;BME280;62745;51.060;13.786;2023-04-22T02:20:35;100039.59;;;6.38;90.44
74327;BME280;62745;51.060;13.786;2023-04-22T02:23:01;100029.19;;;6.28;90.60
74327;BME280;62745;51.060;13.786;2023-04-22T02:25:27;100027.88;;;6.24;91.25
74327;BME280;62745;51.060;13.786;2023-04-22T02:27:52;100019.41;;;6.21;91.33
74327;BME280;62745;51.060;13.786;2023-04-22T02:30:18;100023.75;;;6.22;91.99
74327;BME280;62745;51.060;13.786;2023-04-22T02:32:43;100022.22;;;6.27;91.62
74327;BME280;62745;51.060;13.786;2023-04-22T02:35:09;100016.22;;;6.33;91.20
74327;BME280;62745;51.060;13.786;2023-04-22T02:37:36;100002.00;;;6.18;91.24
74327;BME280;62745;51.060;13.786;2023-04-22T02:40:01;100016.09;;;6.19;91.81
74327;BME280;62745;51.060;13.786;2023-04-22T02:42:26;100015.97;;;6.12;91.49
74327;BME280;62745;51.060;13.786;2023-04-22T02:44:51;100015.28;;;6.18;91.95
74327;BME280;62745;51.060;13.786;2023-04-22T02:47:16;100014.97;;;6.13;92.06
74327;BME280;62745;51.060;13.786;2023-04-22T02:49:42;100013.66;;;6.09;92.08
74327;BME280;62745;51.060;13.786;2023-04-22T02:52:07;100021.44;;;6.02;91.92
74327;BME280;62745;51.060;13.786;2023-04-22T02:54:32;100011.50;;;5.96;92.52
74327;BME280;62745;51.060;13.786;2023-04-22T02:56:57;100022.94;;;5.97;92.96
74327;BME280;62745;51.060;13.786;2023-04-22T02:59:23;100002.22;;;5.84;93.08
74327;BME280;62745;51.060;13.786;2023-04-22T03:01:48;100031.06;;;5.95;92.86
74327;BME280;62745;51.060;13.786;2023-04-22T03:04:14;100013.16;;;5.89;92.81
74327;BME280;62745;51.060;13.786;2023-04-22T03:06:39;100001.56;;;5.82;92.99
74327;BME280;62745;51.060;13.786;2023-04-22T03:09:04;100018.44;;;6.14;92.20
74327;BME280;62745;51.060;13.786;2023-04-22T03:11:30;100013.03;;;6.46;91.31
74327;BME280;62745;51.060;13.786;2023-04-22T03:13:55;100003.19;;;6.16;91.03
74327;BME280;62745;51.060;13.786;2023-04-22T03:16:22;100016.44;;;6.16;91.46
74327;BME280;62745;51.060;13.786;2023-04-22T03:18:48;100004.88;;;6.09;92.05
74327;BME280;62745;51.060;13.786;2023-04-22T03:21:13;100009.69;;;6.05;91.70
74327;BME280;62745;51.060;13.786;2023-04-22T03:23:48;100009.81;;;6.12;92.11
74327;BME280;62745;51.060;13.786;2023-04-22T03:26:13;100003.34;;;6.14;91.82
74327;BME280;62745;51.060;13.786;2023-04-22T03:28:39;99996.91;;;6.00;91.88
74327;BME280;62745;51.060;13.786;2023-04-22T03:31:04;99999.09;;;5.97;92.46
74327;BME280;62745;51.060;13.786;2023-04-22T03:33:29;99997.13;;;5.91;92.93
74327;BME280;62745;51.060;13.786;2023-04-22T03:35:55;100006.88;;;5.90;93.09
74327;BME280;62745;51.060;13.786;2023-04-22T03:38:20;99996.75;;;5.78;92.36
74327;BME280;62745;51.060;13.786;2023-04-22T03:40:45;99999.06;;;5.81;92.34
74327;BME280;62745;51.060;13.786;2023-04-22T03:43:10;99992.94;;;5.80;92.91
74327;BME280;62745;51.060;13.786;2023-04-22T03:45:36;99989.28;;;5.81;92.51
74327;BME280;62745;51.060;13.786;2023-04-22T03:48:01;99982.84;;;5.76;92.60
74327;BME280;62745;51.060;13.786;2023-04-22T03:50:27;99985.84;;;5.72;93.76
74327;BME280;62745;51.060;13.786;2023-04-22T03:52:52;99988.47;;;5.97;93.67
74327;BME280;62745;51.060;13.786;2023-04-22T03:55:18;100006.00;;;6.14;92.04
74327;BME280;62745;51.060;13.786;2023-04-22T03:57:43;99997.25;;;6.06;92.36
74327;BME280;62745;51.060;13.786;2023-04-22T04:00:09;99992.28;;;5.94;92.16
74327;BME280;62745;51.060;13.786;2023-04-22T04:02:34;99999.41;;;6.02;92.24
74327;BME280;62745;51.060;13.786;2023-04-22T04:04:59;100007.53;;;5.92;93.29
74327;BME280;62745;51.060;13.786;2023-04-22T04:07:26;100005.06;;;5.91;92.50
74327;BME280;62745;51.060;13.786;2023-04-22T04:09:51;100000.91;;;5.96;92.63
74327;BME280;62745;51.060;13.786;2023-04-22T04:12:16;99998.06;;;5.82;92.38
74327;BME280;62745;51.060;13.786;2023-04-22T04:14:41;100001.22;;;5.69;93.37
74327;BME280;62745;51.060;13.786;2023-04-22T04:17:07;99998.44;;;5.62;94.27
74327;BME280;62745;51.060;13.786;2023-04-22T04:19:38;100006.53;;;5.69;94.37
74327;BME280;62745;51.060;13.786;2023-04-22T04:22:03;99975.75;;;5.60;94.35
74327;BME280;62745;51.060;13.786;2023-04-22T04:24:28;99980.84;;;5.86;94.48
74327;BME280;62745;51.060;13.786;2023-04-22T04:26:54;99970.09;;;5.79;93.47
74327;BME280;62745;51.060;13.786;2023-04-22T04:29:19;99980.53;;;5.81;93.34
74327;BME280;62745;51.060;13.786;2023-04-22T04:31:44;99997.72;;;5.85;93.57
74327;BME280;62745;51.060;13.786;2023-04-22T04:34:10;99999.59;;;5.92;93.65
74327;BME280;62745;51.060;13.786;2023-04-22T04:36:35;100006.19;;;5.88;93.42
74327;BME280;62745;51.060;13.786;2023-04-22T04:39:04;99985.69;;;5.74;93.47
74327;BME280;62745;51.060;13.786;2023-04-22T04:41:29;99978.72;;;5.73;93.40
74327;BME280;62745;51.060;13.786;2023-04-22T04:43:55;99988.47;;;5.81;93.09
74327;BME280;62745;51.060;13.786;2023-04-22T04:46:24;100005.06;;;5.91;93.58
74327;BME280;62745;51.060;13.786;2023-04-22T04:48:50;99981.16;;;5.83;92.53
74327;BME280;62745;51.060;13.786;2023-04-22T04:51:17;99977.19;;;5.87;92.33
74327;BME280;62745;51.060;13.786;2023-04-22T04:53:43;99979.00;;;6.02;91.55
74327;BME280;62745;51.060;13.786;2023-04-22T04:56:08;99985.47;;;6.08;90.86
74327;BME280;62745;51.060;13.786;2023-04-22T04:58:33;99991.56;;;6.17;91.37
74327;BME280;62745;51.060;13.786;2023-04-22T05:00:59;99964.22;;;6.16;90.65
74327;BME280;62745;51.060;13.786;2023-04-22T05:03:24;99985.03;;;6.44;89.91
74327;BME280;62745;51.060;13.786;2023-04-22T05:05:49;100001.63;;;6.77;89.64
74327;BME280;62745;51.060;13.786;2023-04-22T05:08:14;99992.78;;;6.84;89.21
74327;BME280;62745;51.060;13.786;2023-04-22T05:10:40;100001.28;;;6.80;87.79
74327;BME280;62745;51.060;13.786;2023-04-22T05:13:06;99987.91;;;6.73;87.43
74327;BME280;62745;51.060;13.786;2023-04-22T05:15:31;100001.09;;;6.81;87.33
74327;BME280;62745;51.060;13.786;2023-04-22T05:17:57;99981.53;;;6.82;87.50
74327;BME280;62745;51.060;13.786;2023-04-22T05:20:22;99978.03;;;6.82;87.43
74327;BME280;62745;51.060;13.786;2023-04-22T05:22:47;99989.34;;;7.07;89.24
74327;BME280;62745;51.060;13.786;2023-04-22T05:25:15;100015.38;;;7.11;89.28
74327;BME280;62745;51.060;13.786;2023-04-22T05:27:40;100011.75;;;7.04;89.46
74327;BME280;62745;51.060;13.786;2023-04-22T05:30:07;100005.78;;;7.02;90.02
74327;BME280;62745;51.060;13.786;2023-04-22T05:32:33;100011.53;;;7.14;89.52
74327;BME280;62745;51.060;13.786;2023-04-22T05:34:58;99986.16;;;7.11;88.72
74327;BME280;62745;51.060;13.786;2023-04-22T05:37:24;99990.22;;;7.22;88.21
74327;BME280;62745;51.060;13.786;2023-04-22T05:39:49;100007.88;;;7.38;86.96
74327;BME280;62745;51.060;13.786;2023-04-22T05:42:15;99986.53;;;7.31;86.72
74327;BME280;62745;51.060;13.786;2023-04-22T05:44:40;99985.63;;;7.39;88.02
74327;BME280;62745;51.060;13.786;2023-04-22T05:47:06;99992.19;;;7.51;87.69
74327;BME280;62745;51.060;13.786;2023-04-22T05:49:31;100005.50;;;7.66;88.04
74327;BME280;62745;51.060;13.786;2023-04-22T05:51:57;99999.97;;;7.75;86.96
74327;BME280;62745;51.060;13.786;2023-04-22T05:54:22;99975.66;;;7.78;85.95
74327;BME280;62745;51.060;13.786;2023-04-22T05:56:47;99990.00;;;7.92;85.32
74327;BME280;62745;51.060;13.786;2023-04-22T05:59:13;99980.44;;;7.98;85.04
74327;BME280;62745;51.060;13.786;2023-04-22T06:01:38;99991.75;;;8.14;84.54
74327;BME280;62745;51.060;13.786;2023-04-22T06:04:03;100007.19;;;8.34;84.04
74327;BME280;62745;51.060;13.786;2023-04-22T06:06:30;99989.72;;;8.31;84.48
74327;BME280;62745;51.060;13.786;2023-04-22T06:08:56;99993.88;;;8.49;85.40
74327;BME280;62745;51.060;13.786;2023-04-22T06:11:21;99997.56;;;8.62;85.59
74327;BME280;62745;51.060;13.786;2023-04-22T06:13:46;100000.09;;;8.70;84.84
74327;BME280;62745;51.060;13.786;2023-04-22T06:16:11;100002.34;;;8.88;85.45
74327;BME280;62745;51.060;13.786;2023-04-22T06:18:37;100006.63;;;9.04;85.18
74327;BME280;62745;51.060;13.786;2023-04-22T06:21:02;99987.31;;;9.17;85.27
74327;BME280;62745;51.060;13.786;2023-04-22T06:23:27;100007.81;;;9.38;85.66
74327;BME280;62745;51.060;13.786;2023-04-22T06:25:53;100010.03;;;9.55;82.47
74327;BME280;62745;51.060;13.786;2023-04-22T06:28:18;100006.53;;;9.76;81.50
74327;BME280;62745;51.060;13.786;2023-04-22T06:30:43;99993.44;;;10.09;76.10
74327;BME280;62745;51.060;13.786;2023-04-22T06:33:08;99994.09;;;10.46;73.55
74327;BME280;62745;51.060;13.786;2023-04-22T06:35:34;99987.88;;;10.80;71.48
74327;BME280;62745;51.060;13.786;2023-04-22T06:38:00;99986.56;;;11.24;69.42
74327;BME280;62745;51.060;13.786;2023-04-22T06:40:25;99988.25;;;11.64;65.65
74327;BME280;62745;51.060;13.786;2023-04-22T06:42:50;99985.78;;;12.02;65.68
74327;BME280;62745;51.060;13.786;2023-04-22T06:45:15;99986.56;;;12.23;61.15
74327;BME280;62745;51.060;13.786;2023-04-22T06:47:41;99992.31;;;12.40;61.53
74327;BME280;62745;51.060;13.786;2023-04-22T06:50:07;99999.47;;;12.59;60.71
74327;BME280;62745;51.060;13.786;2023-04-22T06:52:33;99999.22;;;12.74;59.48
74327;BME280;62745;51.060;13.786;2023-04-22T06:54:59;100001.63;;;12.88;57.81
74327;BME280;62745;51.060;13.786;2023-04-22T06:57:24;99999.25;;;13.12;56.58
74327;BME280;62745;51.060;13.786;2023-04-22T06:59:49;100009.91;;;13.32;56.26
74327;BME280;62745;51.060;13.786;2023-04-22T07:02:15;100005.28;;;13.39;55.27
74327;BME280;62745;51.060;13.786;2023-04-22T07:04:41;100002.88;;;13.62;54.55
74327;BME280;62745;51.060;13.786;2023-04-22T07:07:06;99996.56;;;13.75;53.80
74327;BME280;62745;51.060;13.786;2023-04-22T07:09:32;100004.75;;;13.87;54.39
74327;BME280;62745;51.060;13.786;2023-04-22T07:11:57;100004.91;;;13.92;54.27
74327;BME280;62745;51.060;13.786;2023-04-22T07:14:24;100007.25;;;14.06;52.45
74327;BME280;62745;51.060;13.786;2023-04-22T07:16:49;99981.44;;;14.05;53.14
74327;BME280;62745;51.060;13.786;2023-04-22T07:19:14;99988.31;;;14.20;52.02
74327;BME280;62745;51.060;13.786;2023-04-22T07:21:40;99989.22;;;14.32;52.45
74327;BME280;62745;51.060;13.786;2023-04-22T07:24:05;99991.47;;;14.35;53.14
74327;BME280;62745;51.060;13.786;2023-04-22T07:26:31;99992.31;;;14.54;51.78
74327;BME280;62745;51.060;13.786;2023-04-22T07:28:59;99977.03;;;14.54;51.57
74327;BME280;62745;51.060;13.786;2023-04-22T07:31:24;99977.09;;;14.66;51.07
74327;BME280;62745;51.060;13.786;2023-04-22T07:33:54;99995.53;;;14.81;50.97
74327;BME280;62745;51.060;13.786;2023-04-22T07:36:20;99989.59;;;14.90;50.89
74327;BME280;62745;51.060;13.786;2023-04-22T07:38:45;99979.50;;;15.04;51.55
74327;BME280;62745;51.060;13.786;2023-04-22T07:41:11;99975.84;;;15.28;51.45
74327;BME280;62745;51.060;13.786;2023-04-22T07:43:36;99971.38;;;15.22;48.85
74327;BME280;62745;51.060;13.786;2023-04-22T07:46:01;99972.22;;;15.34;49.40
74327;BME280;62745;51.060;13.786;2023-04-22T07:48:27;99964.97;;;15.35;48.99
74327;BME280;62745;51.060;13.786;2023-04-22T07:50:52;99962.56;;;15.45;48.38
74327;BME280;62745;51.060;13.786;2023-04-22T07:53:17;99961.69;;;15.63;49.05
74327;BME280;62745;51.060;13.786;2023-04-22T07:55:43;99981.72;;;15.90;48.01
74327;BME280;62745;51.060;13.786;2023-04-22T07:58:09;99969.06;;;15.91;47.82
74327;BME280;62745;51.060;13.786;2023-04-22T08:00:34;99967.44;;;16.02;47.09
74327;BME280;62745;51.060;13.786;2023-04-22T08:03:00;99956.75;;;16.18;47.19
74327;BME280;62745;51.060;13.786;2023-04-22T08:05:26;99968.47;;;16.36;46.63
74327;BME280;62745;51.060;13.786;2023-04-22T08:07:51;99964.47;;;16.38;46.17
74327;BME280;62745;51.060;13.786;2023-04-22T08:10:16;99952.16;;;16.42;45.94
74327;BME280;62745;51.060;13.786;2023-04-22T08:12:41;99961.13;;;16.71;45.72
74327;BME280;62745;51.060;13.786;2023-04-22T08:15:07;99957.13;;;16.74;45.40
74327;BME280;62745;51.060;13.786;2023-04-22T08:17:32;99959.47;;;16.82;44.72
74327;BME280;62745;51.060;13.786;2023-04-22T08:19:58;99944.53;;;16.91;44.95
74327;BME280;62745;51.060;13.786;2023-04-22T08:22:23;99969.06;;;17.18;45.20
74327;BME280;62745;51.060;13.786;2023-04-22T08:24:49;99954.00;;;17.22;44.46
74327;BME280;62745;51.060;13.786;2023-04-22T08:27:14;99969.34;;;17.33;42.95
74327;BME280;62745;51.060;13.786;2023-04-22T08:29:40;99944.94;;;17.28;43.79
74327;BME280;62745;51.060;13.786;2023-04-22T08:32:05;99940.03;;;17.42;43.77
74327;BME280;62745;51.060;13.786;2023-04-22T08:34:30;99968.09;;;17.69;43.91
74327;BME280;62745;51.060;13.786;2023-04-22T08:36:56;99954.56;;;17.69;43.29
74327;BME280;62745;51.060;13.786;2023-04-22T08:39:21;99949.31;;;17.80;42.51
74327;BME280;62745;51.060;13.786;2023-04-22T08:41:48;99957.19;;;17.98;42.24
74327;BME280;62745;51.060;13.786;2023-04-22T08:44:15;99964.59;;;18.08;42.24
74327;BME280;62745;51.060;13.786;2023-04-22T08:46:42;99948.84;;;18.21;42.14
74327;BME280;62745;51.060;13.786;2023-04-22T08:49:12;99949.88;;;18.37;40.89
74327;BME280;62745;51.060;13.786;2023-04-22T08:51:38;99946.97;;;18.44;40.78
74327;BME280;62745;51.060;13.786;2023-04-22T08:54:04;99945.44;;;18.48;40.89
74327;BME280;62745;51.060;13.786;2023-04-22T08:56:30;99946.00;;;18.72;42.17
74327;BME280;62745;51.060;13.786;2023-04-22T08:58:55;99948.25;;;19.02;40.54
74327;BME280;62745;51.060;13.786;2023-04-22T09:01:21;99945.44;;;19.18;42.17
74327;BME280;62745;51.060;13.786;2023-04-22T09:03:47;99944.06;;;19.16;40.10
74327;BME280;62745;51.060;13.786;2023-04-22T09:06:14;99958.03;;;19.35;39.36
74327;BME280;62745;51.060;13.786;2023-04-22T09:08:41;99941.59;;;19.46;39.72
74327;BME280;62745;51.060;13.786;2023-04-22T09:11:07;99941.59;;;19.46;38.95
74327;BME280;62745;51.060;13.786;2023-04-22T09:13:33;99940.59;;;19.52;39.02
74327;BME280;62745;51.060;13.786;2023-04-22T09:15:58;99927.50;;;19.71;38.34
74327;BME280;62745;51.060;13.786;2023-04-22T09:18:24;99944.03;;;19.75;37.22
74327;BME280;62745;51.060;13.786;2023-04-22T09:20:54;99927.09;;;19.95;36.40
74327;BME280;62745;51.060;13.786;2023-04-22T09:23:20;99920.38;;;20.02;37.16
74327;BME280;62745;51.060;13.786;2023-04-22T09:25:46;99932.25;;;19.96;36.44
74327;BME280;62745;51.060;13.786;2023-04-22T09:28:16;99922.03;;;20.13;37.05
74327;BME280;62745;51.060;13.786;2023-04-22T09:30:43;99936.56;;;20.34;35.60
74327;BME280;62745;51.060;13.786;2023-04-22T09:33:09;99919.22;;;20.40;35.74
74327;BME280;62745;51.060;13.786;2023-04-22T09:35:36;99918.06;;;20.26;35.69
74327;BME280;62745;51.060;13.786;2023-04-22T09:38:04;99913.56;;;20.47;37.17
74327;BME280;62745;51.060;13.786;2023-04-22T09:40:30;99908.50;;;20.71;36.11
74327;BME280;62745;51.060;13.786;2023-04-22T09:42:58;99902.03;;;20.87;35.20
74327;BME280;62745;51.060;13.786;2023-04-22T09:48:01;99907.72;;;20.96;34.86
74327;BME280;62745;51.060;13.786;2023-04-22T09:50:27;99898.75;;;20.95;33.72
74327;BME280;62745;51.060;13.786;2023-04-22T09:53:01;99904.78;;;21.02;33.90
74327;BME280;62745;51.060;13.786;2023-04-22T09:55:29;99895.25;;;21.10;35.83
74327;BME280;62745;51.060;13.786;2023-04-22T09:57:56;99892.84;;;21.19;35.55
74327;BME280;62745;51.060;13.786;2023-04-22T10:00:24;99880.09;;;21.29;33.75
74327;BME280;62745;51.060;13.786;2023-04-22T10:02:51;99881.97;;;21.49;33.29
74327;BME280;62745;51.060;13.786;2023-04-22T10:05:18;99890.94;;;21.65;33.75
74327;BME280;62745;51.060;13.786;2023-04-22T10:07:43;99886.63;;;21.34;32.87
74327;BME280;62745;51.060;13.786;2023-04-22T10:10:09;99878.47;;;21.39;33.23
74327;BME280;62745;51.060;13.786;2023-04-22T10:12:35;99884.44;;;21.46;33.69
74327;BME280;62745;51.060;13.786;2023-04-22T10:15:02;99881.44;;;21.42;32.13
74327;BME280;62745;51.060;13.786;2023-04-22T10:17:30;99876.53;;;21.65;32.17
74327;BME280;62745;51.060;13.786;2023-04-22T10:19:57;99870.81;;;21.66;32.87
74327;BME280;62745;51.060;13.786;2023-04-22T10:22:23;99872.22;;;21.43;32.11
74327;BME280;62745;51.060;13.786;2023-04-22T10:24:49;99874.63;;;21.70;31.42
74327;BME280;62745;51.060;13.786;2023-04-22T10:27:20;99873.53;;;21.15;31.74
74327;BME280;62745;51.060;13.786;2023-04-22T10:29:45;99873.78;;;21.80;31.74
74327;BME280;62745;51.060;13.786;2023-04-22T10:34:43;99858.44;;;22.25;30.56
74327;BME280;62745;51.060;13.786;2023-04-22T10:37:11;99861.84;;;22.50;29.80
74327;BME280;62745;51.060;13.786;2023-04-22T10:39:38;99860.41;;;22.68;30.18
74327;BME280;62745;51.060;13.786;2023-04-22T10:42:11;99861.59;;;22.96;29.47
74327;BME280;62745;51.060;13.786;2023-04-22T10:44:54;99852.97;;;22.84;29.08
74327;BME280;62745;51.060;13.786;2023-04-22T10:47:31;99858.41;;;22.35;29.54
74327;BME280;62745;51.060;13.786;2023-04-22T10:50:15;99861.31;;;22.54;29.33
74327;BME280;62745;51.060;13.786;2023-04-22T10:52:42;99854.59;;;22.31;28.64
74327;BME280;62745;51.060;13.786;2023-04-22T10:55:08;99860.22;;;22.49;29.29
74327;BME280;62745;51.060;13.786;2023-04-22T10:57:39;99860.03;;;22.36;29.27
74327;BME280;62745;51.060;13.786;2023-04-22T11:00:26;99871.06;;;21.90;30.20
74327;BME280;62745;51.060;13.786;2023-04-22T11:05:20;99850.72;;;22.47;30.05
74327;BME280;62745;51.060;13.786;2023-04-22T11:07:51;99861.75;;;22.66;28.79
74327;BME280;62745;51.060;13.786;2023-04-22T11:10:37;99841.19;;;23.28;28.82
74327;BME280;62745;51.060;13.786;2023-04-22T11:13:06;99838.78;;;23.50;28.64
74327;BME280;62745;51.060;13.786;2023-04-22T11:15:34;99850.13;;;22.99;28.73
74327;BME280;62745;51.060;13.786;2023-04-22T11:18:00;99841.06;;;22.70;29.06
74327;BME280;62745;51.060;13.786;2023-04-22T11:20:26;99838.66;;;22.04;30.02
74327;BME280;62745;51.060;13.786;2023-04-22T11:22:54;99846.16;;;22.32;29.83
74327;BME280;62745;51.060;13.786;2023-04-22T11:25:21;99847.00;;;22.82;29.38
74327;BME280;62745;51.060;13.786;2023-04-22T11:27:47;99842.06;;;23.52;28.76
74327;BME280;62745;51.060;13.786;2023-04-22T11:30:18;99840.28;;;23.95;28.63
74327;BME280;62745;51.060;13.786;2023-04-22T11:32:46;99851.22;;;23.66;27.58
74327;BME280;62745;51.060;13.786;2023-04-22T11:37:46;99842.59;;;24.31;27.62
74327;BME280;62745;51.060;13.786;2023-04-22T11:40:14;99838.34;;;24.20;26.93
74327;BME280;62745;51.060;13.786;2023-04-22T11:42:39;99824.94;;;23.47;27.63
74327;BME280;62745;51.060;13.786;2023-04-22T11:47:33;99828.78;;;23.75;27.15
74327;BME280;62745;51.060;13.786;2023-04-22T11:50:03;99814.50;;;24.49;26.83
74327;BME280;62745;51.060;13.786;2023-04-22T11:53:01;99810.50;;;24.79;25.96
74327;BME280;62745;51.060;13.786;2023-04-22T11:55:32;99808.84;;;25.16;26.14
74327;BME280;62745;51.060;13.786;2023-04-22T11:58:08;99819.03;;;25.43;25.73
74327;BME280;62745;51.060;13.786;2023-04-22T12:00:45;99811.72;;;25.71;24.00
74327;BME280;62745;51.060;13.786;2023-04-22T12:08:09;99817.47;;;25.83;25.12
74327;BME280;62745;51.060;13.786;2023-04-22T12:10:44;99813.50;;;26.03;23.86
74327;BME280;62745;51.060;13.786;2023-04-22T12:13:17;99818.28;;;26.38;23.46
74327;BME280;62745;51.060;13.786;2023-04-22T12:15:43;99811.25;;;25.36;23.07
74327;BME280;62745;51.060;13.786;2023-04-22T12:18:09;99806.13;;;25.30;23.49
74327;BME280;62745;51.060;13.786;2023-04-22T12:20:37;99796.81;;;25.91;24.13
74327;BME280;62745;51.060;13.786;2023-04-22T12:23:04;99794.81;;;24.52;28.58
74327;BME280;62745;51.060;13.786;2023-04-22T12:25:29;99806.25;;;24.54;27.70
74327;BME280;62745;51.060;13.786;2023-04-22T12:27:59;99787.19;;;24.49;27.90
74327;BME280;62745;51.060;13.786;2023-04-22T12:30:25;99795.13;;;25.02;26.87
74327;BME280;62745;51.060;13.786;2023-04-22T12:32:50;99791.53;;;24.69;27.57
74327;BME280;62745;51.060;13.786;2023-04-22T12:35:16;99800.19;;;24.57;28.40
74327;BME280;62745;51.060;13.786;2023-04-22T12:37:42;99796.72;;;25.36;28.19
74327;BME280;62745;51.060;13.786;2023-04-22T12:40:07;99796.75;;;24.84;27.41
74327;BME280;62745;51.060;13.786;2023-04-22T12:42:33;99780.31;;;24.71;28.38
74327;BME280;62745;51.060;13.786;2023-04-22T12:44:59;99771.19;;;25.73;27.04
74327;BME280;62745;51.060;13.786;2023-04-22T12:47:24;99775.72;;;26.05;24.94
74327;BME280;62745;51.060;13.786;2023-04-22T12:49:49;99773.31;;;25.76;26.53
74327;BME280;62745;51.060;13.786;2023-04-22T12:52:15;99763.03;;;26.09;25.55
74327;BME280;62745;51.060;13.786;2023-04-22T12:54:40;99773.69;;;26.83;23.42
74327;BME280;62745;51.060;13.786;2023-04-22T12:57:06;99762.19;;;26.36;24.14
74327;BME280;62745;51.060;13.786;2023-04-22T12:59:31;99772.66;;;25.65;26.88
74327;BME280;62745;51.060;13.786;2023-04-22T13:01:56;99760.63;;;25.94;25.30
74327;BME280;62745;51.060;13.786;2023-04-22T13:04:21;99770.69;;;27.15;24.11